Airport ID:K63S
Update Time (UTC):26/10/2021 15:56
Wind Speed (Knots):0
Wind Direction (Magnetic):340
Temperature (°C):7
Dew Point (°C):4
Humidity (%):78
Altimeter (inHg):29.77
Density Altitude (Feet):
Visibility:10+
Clouds (Hundreds of feet):FEW022 OVC030
Present Weather:
METAR:METAR K63S 261555Z AUTO 00000KT 10SM FEW022 OVC030 08/04 A2977 RMK A01

The data displayed is for advisory purposes only and is not to be used for flight planning or operations.